createdAt,value
2022-11-17T00:00:58.245Z,986.49
2022-11-17T00:01:58.306Z,986.48
2022-11-17T00:02:58.238Z,986.45
2022-11-17T00:03:58.212Z,986.43
2022-11-17T00:04:58.227Z,986.38
2022-11-17T00:05:58.197Z,986.44
2022-11-17T00:06:58.256Z,986.41
2022-11-17T00:07:58.174Z,986.40
2022-11-17T00:08:58.160Z,986.34
2022-11-17T00:09:58.178Z,986.39
2022-11-17T00:10:58.131Z,986.38
2022-11-17T00:11:58.141Z,986.39
2022-11-17T00:12:58.130Z,986.32
2022-11-17T00:13:58.163Z,986.28
2022-11-17T00:14:58.137Z,986.34
2022-11-17T00:15:58.120Z,986.33
2022-11-17T00:16:58.078Z,986.24
2022-11-17T00:17:58.050Z,986.31
2022-11-17T00:18:58.056Z,986.19
2022-11-17T00:19:58.043Z,986.17
2022-11-17T00:20:58.043Z,986.20
2022-11-17T00:21:58.902Z,986.21
2022-11-17T00:22:58.014Z,986.21
2022-11-17T00:23:58.002Z,986.10
2022-11-17T00:24:57.997Z,986.07
2022-11-17T00:25:57.968Z,986.15
2022-11-17T00:26:58.033Z,986.09
2022-11-17T00:27:57.934Z,986.15
2022-11-17T00:28:57.966Z,986.00
2022-11-17T00:29:57.946Z,986.04
2022-11-17T00:30:57.966Z,986.03
2022-11-17T00:31:57.904Z,985.92
2022-11-17T00:32:57.889Z,985.98
2022-11-17T00:33:57.907Z,985.87
2022-11-17T00:34:57.856Z,985.82
2022-11-17T00:35:57.848Z,985.69
2022-11-17T00:36:57.843Z,985.64
2022-11-17T00:37:57.860Z,985.62
2022-11-17T00:38:57.822Z,985.70
2022-11-17T00:40:00.786Z,985.69
2022-11-17T00:40:57.785Z,985.56
2022-11-17T00:41:57.803Z,985.57
2022-11-17T00:42:57.785Z,985.50
2022-11-17T00:43:57.797Z,985.51
2022-11-17T00:44:57.799Z,985.44
2022-11-17T00:45:57.749Z,985.47
2022-11-17T00:46:57.733Z,985.39
2022-11-17T00:47:57.732Z,985.39
2022-11-17T00:48:57.728Z,985.43
2022-11-17T00:49:57.693Z,985.30
2022-11-17T00:50:57.699Z,985.28
2022-11-17T00:51:57.695Z,985.20
2022-11-17T00:52:57.650Z,985.13
2022-11-17T00:53:57.668Z,985.16
2022-11-17T00:54:57.677Z,985.17
2022-11-17T00:55:57.621Z,985.15
2022-11-17T00:56:57.655Z,985.17
2022-11-17T00:57:57.593Z,985.08
2022-11-17T00:58:57.592Z,985.16
2022-11-17T00:59:57.567Z,985.10
2022-11-17T01:00:57.580Z,985.11
2022-11-17T01:01:57.651Z,985.02
2022-11-17T01:02:57.572Z,985.02
2022-11-17T01:03:57.534Z,984.94
2022-11-17T01:04:57.534Z,984.98
2022-11-17T01:05:57.502Z,984.97
2022-11-17T01:06:57.566Z,985.03
2022-11-17T01:07:57.493Z,985.05
2022-11-17T01:08:57.487Z,985.03
2022-11-17T01:09:57.479Z,984.99
2022-11-17T01:10:57.457Z,984.99
2022-11-17T01:11:57.452Z,984.98
2022-11-17T01:12:57.424Z,984.89
2022-11-17T01:13:57.424Z,984.97
2022-11-17T01:14:57.414Z,984.95
2022-11-17T01:15:57.435Z,984.93
2022-11-17T01:16:57.400Z,984.91
2022-11-17T01:17:57.366Z,984.89
2022-11-17T01:18:57.371Z,984.86
2022-11-17T01:19:57.380Z,984.88
2022-11-17T01:20:57.352Z,984.82
2022-11-17T01:21:57.332Z,984.84
2022-11-17T01:22:57.325Z,984.84
2022-11-17T01:23:57.309Z,984.79
2022-11-17T01:24:57.294Z,984.72
2022-11-17T01:25:57.295Z,984.72
2022-11-17T01:26:57.282Z,984.69
2022-11-17T01:27:57.282Z,984.67
2022-11-17T01:28:57.267Z,984.63
2022-11-17T01:29:57.247Z,984.62
2022-11-17T01:30:57.238Z,984.56
2022-11-17T01:31:57.225Z,984.55
2022-11-17T01:32:57.236Z,984.58
2022-11-17T01:33:57.202Z,984.58
2022-11-17T01:34:57.196Z,984.51
2022-11-17T01:35:57.167Z,984.42
2022-11-17T01:36:57.168Z,984.41
2022-11-17T01:37:57.156Z,984.40
2022-11-17T01:38:57.197Z,984.41
2022-11-17T01:39:57.153Z,984.37
2022-11-17T01:40:57.131Z,984.41
2022-11-17T01:41:57.110Z,984.41
2022-11-17T01:42:57.101Z,984.32
2022-11-17T01:43:57.089Z,984.32
2022-11-17T01:44:57.079Z,984.32
2022-11-17T01:45:57.077Z,984.31
2022-11-17T01:47:00.892Z,984.28
2022-11-17T01:47:57.040Z,984.27
2022-11-17T01:48:57.049Z,984.18
2022-11-17T01:49:57.015Z,984.18
2022-11-17T01:50:57.011Z,984.11
2022-11-17T01:51:57.017Z,984.14
2022-11-17T01:52:56.980Z,984.19
2022-11-17T01:53:57.015Z,984.13
2022-11-17T01:54:56.967Z,984.09
2022-11-17T01:55:57.043Z,984.08
2022-11-17T01:56:56.940Z,984.01
2022-11-17T01:57:56.921Z,984.10
2022-11-17T01:58:56.922Z,984.06
2022-11-17T01:59:56.911Z,984.11
2022-11-17T02:00:56.889Z,983.92
2022-11-17T02:01:56.980Z,984.05
2022-11-17T02:02:56.899Z,984.02
2022-11-17T02:03:56.854Z,984.02
2022-11-17T02:04:56.857Z,984.02
2022-11-17T02:05:56.838Z,983.92
2022-11-17T02:06:56.893Z,983.98
2022-11-17T02:07:56.820Z,983.95
2022-11-17T02:08:56.828Z,984.00
2022-11-17T02:09:56.786Z,983.95
2022-11-17T02:10:56.785Z,983.92
2022-11-17T02:11:56.774Z,983.85
2022-11-17T02:12:56.770Z,983.98
2022-11-17T02:13:56.778Z,983.90
2022-11-17T02:14:56.848Z,983.87
2022-11-17T02:15:56.717Z,983.90
2022-11-17T02:16:56.712Z,983.91
2022-11-17T02:17:56.756Z,983.88
2022-11-17T02:18:56.698Z,984.04
2022-11-17T02:19:56.707Z,983.92
2022-11-17T02:20:56.679Z,983.94
2022-11-17T02:21:56.658Z,983.99
2022-11-17T02:22:56.669Z,983.93
2022-11-17T02:23:56.636Z,983.88
2022-11-17T02:24:56.626Z,983.94
2022-11-17T02:25:56.607Z,983.89
2022-11-17T02:26:56.598Z,983.87
2022-11-17T02:27:56.606Z,983.84
2022-11-17T02:28:56.600Z,983.84
2022-11-17T02:29:56.590Z,983.83
2022-11-17T02:30:56.574Z,983.83
2022-11-17T02:31:56.607Z,983.82
2022-11-17T02:32:56.568Z,983.76
2022-11-17T02:34:03.083Z,983.86
2022-11-17T02:34:56.540Z,983.81
2022-11-17T02:35:56.512Z,983.73
2022-11-17T02:36:56.500Z,983.77
2022-11-17T02:37:56.473Z,983.87
2022-11-17T02:38:56.471Z,983.68
2022-11-17T02:39:56.495Z,983.69
2022-11-17T02:40:56.434Z,983.68
2022-11-17T02:41:56.463Z,983.70
2022-11-17T02:42:56.411Z,983.67
2022-11-17T02:43:56.431Z,983.72
2022-11-17T02:44:56.437Z,983.66
2022-11-17T02:45:56.386Z,983.62
2022-11-17T02:46:56.406Z,983.62
2022-11-17T02:47:56.407Z,983.67
2022-11-17T02:48:56.401Z,983.59
2022-11-17T02:49:56.391Z,983.58
2022-11-17T02:50:56.332Z,983.56
2022-11-17T02:51:56.444Z,983.56
2022-11-17T02:52:56.309Z,983.56
2022-11-17T02:53:56.315Z,983.55
2022-11-17T02:54:56.300Z,983.58
2022-11-17T02:55:56.269Z,983.49
2022-11-17T02:56:56.302Z,983.47
2022-11-17T02:57:56.255Z,983.40
2022-11-17T02:58:56.311Z,983.45
2022-11-17T02:59:56.239Z,983.41
2022-11-17T03:00:56.228Z,983.34
2022-11-17T03:01:56.336Z,983.35
2022-11-17T03:02:56.206Z,983.36
2022-11-17T03:03:56.212Z,983.34
2022-11-17T03:04:56.226Z,983.33
2022-11-17T03:05:56.195Z,983.33
2022-11-17T03:06:56.195Z,983.43
2022-11-17T03:07:56.162Z,983.41
2022-11-17T03:08:56.134Z,983.28
2022-11-17T03:09:56.138Z,983.29
2022-11-17T03:10:56.129Z,983.34
2022-11-17T03:11:56.127Z,983.27
2022-11-17T03:12:56.086Z,983.26
2022-11-17T03:13:56.086Z,983.23
2022-11-17T03:14:56.058Z,983.24
2022-11-17T03:15:56.077Z,983.12
2022-11-17T03:16:56.028Z,983.27
2022-11-17T03:17:56.043Z,983.16
2022-11-17T03:18:56.042Z,983.31
2022-11-17T03:19:56.085Z,983.24
2022-11-17T03:20:56.004Z,983.25
2022-11-17T03:21:55.995Z,983.25
2022-11-17T03:22:55.985Z,983.28
2022-11-17T03:23:55.972Z,983.22
2022-11-17T03:24:55.970Z,983.33
2022-11-17T03:25:55.970Z,983.30
2022-11-17T03:26:55.952Z,983.31
2022-11-17T03:27:55.936Z,983.28
2022-11-17T03:28:55.894Z,983.28
2022-11-17T03:29:55.910Z,983.33
2022-11-17T03:30:55.891Z,983.23
2022-11-17T03:31:55.893Z,983.26
2022-11-17T03:32:55.865Z,983.19
2022-11-17T03:33:55.868Z,983.19
2022-11-17T03:34:55.843Z,983.21
2022-11-17T03:35:55.832Z,983.15
2022-11-17T03:36:55.810Z,983.18
2022-11-17T03:37:55.809Z,983.25
2022-11-17T03:38:55.796Z,983.12
2022-11-17T03:39:55.783Z,983.16
2022-11-17T03:40:55.804Z,983.17
2022-11-17T03:41:55.785Z,983.09
2022-11-17T03:42:55.776Z,983.09
2022-11-17T03:44:02.262Z,983.14
2022-11-17T03:44:55.723Z,983.13
2022-11-17T03:45:55.737Z,983.06
2022-11-17T03:46:55.707Z,983.08
2022-11-17T03:47:55.683Z,983.03
2022-11-17T03:48:55.692Z,983.18
2022-11-17T03:49:55.679Z,983.13
2022-11-17T03:50:55.725Z,983.12
2022-11-17T03:51:55.632Z,983.11
2022-11-17T03:52:55.655Z,983.13
2022-11-17T03:53:55.621Z,983.03
2022-11-17T03:54:55.597Z,983.03
2022-11-17T03:55:55.590Z,983.02
2022-11-17T03:56:55.585Z,982.92
2022-11-17T03:57:55.611Z,982.82
2022-11-17T03:58:55.571Z,982.78
2022-11-17T03:59:55.561Z,982.76
2022-11-17T04:00:55.593Z,982.68
2022-11-17T04:01:55.596Z,982.68
2022-11-17T04:02:55.588Z,982.59
2022-11-17T04:03:55.517Z,982.67
2022-11-17T04:04:55.489Z,982.58
2022-11-17T04:05:55.478Z,982.70
2022-11-17T04:06:55.552Z,982.63
2022-11-17T04:07:55.470Z,982.62
2022-11-17T04:08:55.452Z,982.63
2022-11-17T04:09:55.435Z,982.66
2022-11-17T04:10:55.471Z,982.66
2022-11-17T04:11:55.421Z,982.58
2022-11-17T04:12:55.398Z,982.59
2022-11-17T04:13:55.413Z,982.67
2022-11-17T04:14:55.415Z,982.67
2022-11-17T04:15:55.460Z,982.64
2022-11-17T04:16:55.358Z,982.61
2022-11-17T04:17:55.418Z,982.66
2022-11-17T04:18:58.820Z,982.57
2022-11-17T04:19:55.348Z,982.53
2022-11-17T04:20:55.335Z,982.56
2022-11-17T04:21:55.391Z,982.54
2022-11-17T04:22:55.291Z,982.66
2022-11-17T04:23:55.330Z,982.58
2022-11-17T04:24:55.285Z,982.47
2022-11-17T04:25:55.280Z,982.54
2022-11-17T04:26:55.250Z,982.49
2022-11-17T04:27:55.236Z,982.48
2022-11-17T04:28:55.216Z,982.57
2022-11-17T04:29:55.231Z,982.61
2022-11-17T04:30:55.201Z,982.60
2022-11-17T04:31:55.198Z,982.49
2022-11-17T04:32:55.243Z,982.58
2022-11-17T04:33:55.183Z,982.55
2022-11-17T04:34:55.158Z,982.53
2022-11-17T04:35:55.139Z,982.49
2022-11-17T04:36:55.124Z,982.52
2022-11-17T04:37:55.198Z,982.52
2022-11-17T04:38:55.113Z,982.55
2022-11-17T04:39:55.121Z,982.52
2022-11-17T04:40:55.099Z,982.47
2022-11-17T04:41:55.123Z,982.61
2022-11-17T04:42:55.079Z,982.44
2022-11-17T04:43:55.081Z,982.55
2022-11-17T04:44:55.091Z,982.51
2022-11-17T04:45:55.030Z,982.51
2022-11-17T04:46:55.057Z,982.51
2022-11-17T04:47:55.023Z,982.50
2022-11-17T04:48:55.052Z,982.51
2022-11-17T04:49:55.020Z,982.44
2022-11-17T04:50:54.998Z,982.40
2022-11-17T04:51:54.967Z,982.42
2022-11-17T04:52:55.010Z,982.41
2022-11-17T04:53:54.945Z,982.31
2022-11-17T04:54:54.963Z,982.28
2022-11-17T04:55:54.969Z,982.27
2022-11-17T04:56:54.908Z,982.28
2022-11-17T04:57:54.907Z,982.27
2022-11-17T04:58:54.887Z,982.25
2022-11-17T04:59:54.906Z,982.28
2022-11-17T05:00:54.889Z,982.27
2022-11-17T05:01:54.903Z,982.30
2022-11-17T05:02:54.861Z,982.35
2022-11-17T05:03:54.823Z,982.34
2022-11-17T05:04:54.858Z,982.29
2022-11-17T05:05:54.810Z,982.44
2022-11-17T05:06:54.825Z,982.31
2022-11-17T05:07:54.788Z,982.23
2022-11-17T05:08:54.785Z,982.14
2022-11-17T05:09:54.777Z,982.32
2022-11-17T05:10:54.771Z,982.25
2022-11-17T05:11:54.763Z,982.24
2022-11-17T05:12:54.751Z,982.31
2022-11-17T05:13:54.719Z,982.36
2022-11-17T05:14:54.715Z,982.34
2022-11-17T05:15:54.742Z,982.31
2022-11-17T05:16:54.677Z,982.26
2022-11-17T05:17:54.678Z,982.24
2022-11-17T05:18:54.654Z,982.27
2022-11-17T05:19:54.648Z,982.31
2022-11-17T05:20:54.672Z,982.30
2022-11-17T05:21:54.638Z,982.30
2022-11-17T05:22:54.670Z,982.20
2022-11-17T05:24:01.186Z,982.25
2022-11-17T05:24:54.603Z,982.27
2022-11-17T05:25:54.584Z,982.24
2022-11-17T05:26:54.582Z,982.27
2022-11-17T05:27:54.564Z,982.15
2022-11-17T05:28:54.552Z,982.17
2022-11-17T05:29:54.558Z,982.18
2022-11-17T05:30:54.527Z,982.11
2022-11-17T05:31:54.528Z,982.15
2022-11-17T05:32:54.495Z,982.09
2022-11-17T05:33:54.494Z,982.15
2022-11-17T05:34:54.482Z,982.10
2022-11-17T05:35:54.479Z,982.14
2022-11-17T05:36:54.450Z,982.12
2022-11-17T05:37:54.452Z,981.98
2022-11-17T05:38:54.431Z,982.03
2022-11-17T05:39:54.441Z,982.06
2022-11-17T05:40:54.420Z,982.00
2022-11-17T05:41:54.417Z,981.98
2022-11-17T05:42:57.189Z,982.05
2022-11-17T05:44:00.904Z,981.97
2022-11-17T05:44:54.371Z,981.96
2022-11-17T05:45:54.373Z,981.90
2022-11-17T05:46:54.351Z,981.95
2022-11-17T05:47:54.344Z,982.02
2022-11-17T05:48:54.334Z,981.98
2022-11-17T05:49:54.321Z,981.96
2022-11-17T05:50:54.313Z,981.96
2022-11-17T05:51:54.318Z,982.02
2022-11-17T05:52:54.275Z,982.01
2022-11-17T05:53:54.272Z,981.97
2022-11-17T05:54:54.309Z,981.95
2022-11-17T05:55:54.278Z,981.99
2022-11-17T05:56:54.238Z,982.04
2022-11-17T05:57:54.226Z,982.00
2022-11-17T05:58:54.226Z,982.02
2022-11-17T05:59:54.207Z,982.05
2022-11-17T06:00:54.188Z,982.07
2022-11-17T06:01:54.192Z,982.04
2022-11-17T06:02:54.161Z,982.04
2022-11-17T06:03:54.216Z,982.06
2022-11-17T06:04:54.145Z,982.04
2022-11-17T06:05:54.194Z,982.08
2022-11-17T06:06:54.158Z,982.06
2022-11-17T06:07:54.127Z,982.07
2022-11-17T06:08:54.098Z,982.10
2022-11-17T06:09:54.091Z,982.05
2022-11-17T06:10:54.076Z,982.05
2022-11-17T06:11:54.057Z,982.01
2022-11-17T06:12:54.065Z,982.03
2022-11-17T06:13:54.046Z,981.98
2022-11-17T06:14:54.579Z,982.01
2022-11-17T06:15:54.012Z,981.96
2022-11-17T06:16:54.000Z,981.94
2022-11-17T06:17:54.009Z,982.02
2022-11-17T06:18:54.001Z,982.02
2022-11-17T06:19:53.985Z,982.06
2022-11-17T06:20:53.966Z,982.15
2022-11-17T06:22:11.729Z,982.15
2022-11-17T06:22:53.939Z,982.26
2022-11-17T06:24:00.490Z,982.20
2022-11-17T06:24:53.955Z,982.22
2022-11-17T06:25:53.964Z,982.18
2022-11-17T06:26:53.895Z,982.20
2022-11-17T06:27:53.886Z,982.19
2022-11-17T06:28:53.890Z,982.24
2022-11-17T06:29:53.867Z,982.25
2022-11-17T06:30:53.911Z,982.28
2022-11-17T06:31:53.855Z,982.25
2022-11-17T06:32:53.836Z,982.33
2022-11-17T06:33:53.824Z,982.25
2022-11-17T06:34:56.015Z,982.31
2022-11-17T06:35:53.786Z,982.29
2022-11-17T06:36:53.778Z,982.27
2022-11-17T06:37:53.776Z,982.35
2022-11-17T06:38:53.778Z,982.40
2022-11-17T06:39:53.740Z,982.48
2022-11-17T06:40:53.755Z,982.48
2022-11-17T06:41:53.725Z,982.59
2022-11-17T06:42:53.727Z,982.71
2022-11-17T06:43:53.714Z,982.68
2022-11-17T06:44:53.699Z,982.74
2022-11-17T06:45:53.685Z,982.75
2022-11-17T06:46:53.682Z,982.79
2022-11-17T06:47:53.666Z,982.83
2022-11-17T06:48:53.659Z,982.82
2022-11-17T06:49:53.667Z,982.80
2022-11-17T06:50:53.637Z,982.82
2022-11-17T06:51:53.624Z,982.75
2022-11-17T06:52:53.632Z,982.79
2022-11-17T06:53:53.606Z,982.72
2022-11-17T06:54:53.598Z,982.78
2022-11-17T06:55:53.590Z,982.79
2022-11-17T06:56:53.649Z,982.89
2022-11-17T06:57:53.840Z,982.91
2022-11-17T06:58:53.546Z,982.94
2022-11-17T06:59:53.562Z,982.99
2022-11-17T07:00:53.647Z,983.02
2022-11-17T07:01:53.518Z,983.02
2022-11-17T07:02:53.499Z,983.04
2022-11-17T07:03:53.520Z,983.03
2022-11-17T07:04:53.486Z,983.08
2022-11-17T07:05:53.481Z,983.11
2022-11-17T07:06:53.486Z,983.19
2022-11-17T07:07:53.456Z,983.22
2022-11-17T07:08:53.449Z,983.33
2022-11-17T07:09:53.468Z,983.35
2022-11-17T07:10:53.446Z,982.84
2022-11-17T07:11:53.417Z,982.79
2022-11-17T07:12:53.412Z,983.01
2022-11-17T07:13:53.396Z,982.87
2022-11-17T07:14:53.418Z,982.96
2022-11-17T07:15:53.359Z,982.92
2022-11-17T07:16:53.365Z,982.95
2022-11-17T07:17:53.336Z,983.04
2022-11-17T07:18:53.337Z,982.88
2022-11-17T07:19:53.319Z,982.66
2022-11-17T07:20:53.339Z,982.64
2022-11-17T07:21:53.302Z,982.67
2022-11-17T07:22:53.285Z,982.63
2022-11-17T07:23:53.478Z,982.66
2022-11-17T07:24:53.263Z,982.64
2022-11-17T07:25:53.286Z,982.61
2022-11-17T07:26:53.241Z,982.63
2022-11-17T07:27:53.310Z,982.67
2022-11-17T07:28:53.240Z,982.69
2022-11-17T07:29:53.215Z,982.68
2022-11-17T07:30:53.199Z,982.75
2022-11-17T07:31:54.462Z,982.82
2022-11-17T07:32:54.780Z,982.80
2022-11-17T07:33:53.187Z,982.89
2022-11-17T07:34:53.380Z,982.89
2022-11-17T07:35:53.669Z,982.93
2022-11-17T07:36:53.133Z,982.95
2022-11-17T07:37:53.122Z,982.99
2022-11-17T07:38:54.117Z,982.98
2022-11-17T07:39:53.670Z,982.99
2022-11-17T07:40:53.096Z,982.98
2022-11-17T07:41:54.296Z,983.05
2022-11-17T07:42:53.059Z,983.08
2022-11-17T07:43:53.055Z,983.10
2022-11-17T07:44:53.036Z,983.09
2022-11-17T07:45:53.033Z,983.06
2022-11-17T07:46:53.019Z,983.11
2022-11-17T07:47:53.021Z,983.12
2022-11-17T07:48:52.991Z,983.13
2022-11-17T07:49:53.666Z,983.12
2022-11-17T07:50:52.967Z,983.13
2022-11-17T07:51:53.006Z,983.17
2022-11-17T07:52:52.950Z,983.17
2022-11-17T07:53:52.950Z,983.21
2022-11-17T07:54:52.932Z,983.22
2022-11-17T07:55:52.927Z,983.24
2022-11-17T07:56:53.122Z,983.25
2022-11-17T07:57:52.892Z,983.26
2022-11-17T07:58:52.949Z,983.33
2022-11-17T07:59:52.863Z,983.26
2022-11-17T08:00:52.903Z,983.26
2022-11-17T08:01:53.953Z,983.24
2022-11-17T08:02:52.843Z,983.21
2022-11-17T08:03:52.891Z,983.27
2022-11-17T08:04:52.824Z,983.25
2022-11-17T08:05:53.004Z,983.31
2022-11-17T08:06:52.860Z,983.36
2022-11-17T08:07:52.773Z,983.35
2022-11-17T08:08:53.698Z,983.43
2022-11-17T08:09:54.637Z,983.43
2022-11-17T08:10:52.752Z,983.46
2022-11-17T08:11:52.972Z,983.49
2022-11-17T08:12:52.728Z,983.52
2022-11-17T08:13:59.260Z,983.53
2022-11-17T08:14:52.705Z,983.51
2022-11-17T08:15:53.681Z,983.55
2022-11-17T08:16:52.742Z,983.59
2022-11-17T08:17:53.192Z,983.54
2022-11-17T08:18:52.954Z,983.56
2022-11-17T08:19:54.231Z,983.59
2022-11-17T08:20:54.357Z,983.58
2022-11-17T08:21:57.081Z,983.56
2022-11-17T08:22:54.000Z,983.57
2022-11-17T08:23:52.609Z,983.61
2022-11-17T08:24:53.192Z,983.57
2022-11-17T08:25:56.127Z,983.59
2022-11-17T08:26:52.585Z,983.64
2022-11-17T08:27:52.580Z,983.64
2022-11-17T08:28:58.176Z,983.62
2022-11-17T08:29:52.597Z,983.64
2022-11-17T08:30:52.525Z,983.66
2022-11-17T08:31:53.195Z,983.61
2022-11-17T08:32:52.506Z,983.64
2022-11-17T08:33:52.527Z,983.68
2022-11-17T08:34:52.484Z,983.65
2022-11-17T08:35:52.486Z,983.67
2022-11-17T08:36:52.453Z,983.66
2022-11-17T08:37:52.451Z,983.64
2022-11-17T08:38:52.456Z,983.66
2022-11-17T08:39:52.414Z,983.68
2022-11-17T08:40:52.418Z,983.67
2022-11-17T08:41:52.399Z,983.72
2022-11-17T08:42:57.536Z,983.71
2022-11-17T08:43:53.191Z,983.69
2022-11-17T08:44:56.126Z,983.77
2022-11-17T08:46:14.429Z,983.73
2022-11-17T08:47:11.416Z,983.77
2022-11-17T08:47:52.346Z,983.76
2022-11-17T08:48:56.829Z,983.82
2022-11-17T08:49:52.414Z,983.75
2022-11-17T08:50:52.293Z,983.76
2022-11-17T08:51:52.321Z,983.66
2022-11-17T08:52:52.274Z,983.74
2022-11-17T08:53:52.271Z,983.74
2022-11-17T08:54:52.539Z,983.79
2022-11-17T08:55:52.337Z,983.73
2022-11-17T08:56:52.274Z,983.78
2022-11-17T08:57:53.200Z,983.74
2022-11-17T08:58:52.222Z,983.74
2022-11-17T08:59:52.208Z,983.74
2022-11-17T09:00:52.286Z,983.83
2022-11-17T09:01:53.098Z,983.86
2022-11-17T09:02:52.166Z,983.88
2022-11-17T09:03:52.358Z,983.90
2022-11-17T09:04:56.413Z,983.91
2022-11-17T09:05:52.130Z,983.93
2022-11-17T09:06:52.154Z,983.96
2022-11-17T09:07:52.886Z,983.98
2022-11-17T09:08:52.777Z,983.97
2022-11-17T09:09:52.112Z,983.94
2022-11-17T09:10:52.067Z,983.93
2022-11-17T09:11:52.153Z,983.93
2022-11-17T09:12:52.054Z,983.87
2022-11-17T09:13:52.066Z,983.92
2022-11-17T09:14:52.034Z,983.96
2022-11-17T09:15:52.017Z,983.95
2022-11-17T09:16:51.997Z,983.92
2022-11-17T09:17:51.989Z,983.93
2022-11-17T09:18:52.926Z,983.91
2022-11-17T09:19:51.988Z,983.97
2022-11-17T09:20:52.915Z,983.94
2022-11-17T09:21:51.969Z,983.92
2022-11-17T09:22:51.927Z,983.97
2022-11-17T09:23:51.925Z,983.99
2022-11-17T09:24:52.125Z,984.00
2022-11-17T09:25:53.050Z,984.04
2022-11-17T09:26:52.816Z,984.02
2022-11-17T09:27:51.903Z,984.00
2022-11-17T09:28:52.838Z,984.08
2022-11-17T09:29:52.073Z,984.10
2022-11-17T09:30:52.061Z,984.09
2022-11-17T09:31:55.208Z,984.12
2022-11-17T09:32:51.816Z,984.11
2022-11-17T09:33:54.876Z,984.08
2022-11-17T09:34:51.880Z,984.09
2022-11-17T09:35:52.716Z,984.13
2022-11-17T09:36:51.771Z,984.06
2022-11-17T09:37:51.749Z,984.16
2022-11-17T09:38:51.821Z,984.16
2022-11-17T09:39:51.749Z,984.19
2022-11-17T09:40:51.967Z,984.17
2022-11-17T09:41:51.705Z,984.18
2022-11-17T09:42:52.671Z,984.23
2022-11-17T09:43:52.535Z,984.14
2022-11-17T09:44:51.673Z,984.22
2022-11-17T09:45:52.088Z,984.24
2022-11-17T09:46:51.658Z,984.23
2022-11-17T09:47:51.644Z,984.27
2022-11-17T09:48:51.794Z,984.31
2022-11-17T09:49:56.952Z,984.35
2022-11-17T09:50:52.626Z,984.39
2022-11-17T09:51:51.613Z,984.34
2022-11-17T09:52:52.204Z,984.47
2022-11-17T09:53:57.811Z,984.44
2022-11-17T09:54:51.554Z,984.41
2022-11-17T09:55:52.214Z,984.49
2022-11-17T09:56:51.558Z,984.48
2022-11-17T09:57:51.571Z,984.47
2022-11-17T09:58:52.195Z,984.44
2022-11-17T09:59:52.734Z,984.49
2022-11-17T10:00:51.745Z,984.50
2022-11-17T10:01:52.596Z,984.50
2022-11-17T10:02:52.713Z,984.53
2022-11-17T10:03:52.694Z,984.51
2022-11-17T10:04:56.414Z,984.54
2022-11-17T10:05:51.457Z,984.57
2022-11-17T10:06:57.390Z,984.58
2022-11-17T10:07:52.548Z,984.62
2022-11-17T10:08:51.663Z,984.58
2022-11-17T10:09:51.407Z,984.64
2022-11-17T10:10:51.412Z,984.58
2022-11-17T10:11:52.207Z,984.61
2022-11-17T10:12:52.459Z,984.66
2022-11-17T10:13:53.170Z,984.69
2022-11-17T10:14:51.359Z,984.70
2022-11-17T10:15:54.286Z,984.67
2022-11-17T10:16:53.493Z,984.69
2022-11-17T10:17:51.507Z,984.72
2022-11-17T10:18:51.310Z,984.67
2022-11-17T10:19:52.209Z,984.68
2022-11-17T10:20:51.293Z,984.74
2022-11-17T10:21:51.303Z,984.67
2022-11-17T10:22:51.288Z,984.71
2022-11-17T10:23:51.246Z,984.71
2022-11-17T10:25:01.359Z,984.72
2022-11-17T10:25:52.224Z,984.71
2022-11-17T10:26:52.432Z,984.78
2022-11-17T10:28:13.214Z,984.72
2022-11-17T10:28:51.233Z,984.75
2022-11-17T10:29:51.716Z,984.75
2022-11-17T10:30:51.367Z,984.80
2022-11-17T10:31:51.604Z,984.76
2022-11-17T10:32:51.208Z,984.80
2022-11-17T10:33:51.253Z,984.76
2022-11-17T10:34:51.134Z,984.74
2022-11-17T10:35:51.100Z,984.76
2022-11-17T10:36:51.129Z,984.79
2022-11-17T10:37:51.991Z,984.78
2022-11-17T10:38:52.283Z,984.75
2022-11-17T10:39:51.098Z,984.74
2022-11-17T10:40:54.559Z,984.75
2022-11-17T10:41:51.055Z,984.76
2022-11-17T10:42:51.277Z,984.76
2022-11-17T10:43:51.074Z,984.72
2022-11-17T10:44:51.007Z,984.71
2022-11-17T10:45:51.581Z,984.72
2022-11-17T10:46:53.122Z,984.78
2022-11-17T10:47:50.992Z,984.77
2022-11-17T10:48:50.986Z,984.75
2022-11-17T10:49:50.978Z,984.72
2022-11-17T10:50:51.017Z,984.76
2022-11-17T10:51:51.864Z,984.73
2022-11-17T10:52:50.923Z,984.80
2022-11-17T10:53:51.118Z,984.77
2022-11-17T10:54:50.894Z,984.82
2022-11-17T10:55:50.898Z,984.78
2022-11-17T10:56:50.868Z,984.82
2022-11-17T10:57:50.883Z,984.82
2022-11-17T10:58:50.861Z,984.81
2022-11-17T10:59:56.542Z,984.83
2022-11-17T11:00:50.897Z,984.85
2022-11-17T11:01:51.019Z,984.92
2022-11-17T11:02:50.791Z,984.89
2022-11-17T11:03:50.833Z,984.80
2022-11-17T11:04:50.864Z,984.79
2022-11-17T11:05:50.786Z,984.80
2022-11-17T11:06:51.025Z,984.80
2022-11-17T11:07:50.834Z,984.78
2022-11-17T11:08:50.765Z,984.80
2022-11-17T11:09:51.656Z,984.84
2022-11-17T11:10:50.720Z,984.83
2022-11-17T11:11:50.725Z,984.83
2022-11-17T11:12:50.707Z,984.79
2022-11-17T11:13:50.696Z,984.77
2022-11-17T11:14:50.684Z,984.84
2022-11-17T11:15:50.764Z,984.82
2022-11-17T11:16:55.330Z,984.88
2022-11-17T11:17:50.686Z,984.90
2022-11-17T11:18:50.646Z,984.92
2022-11-17T11:19:50.618Z,984.93
2022-11-17T11:20:50.627Z,984.93
2022-11-17T11:21:50.605Z,984.94
2022-11-17T11:22:50.586Z,984.95
2022-11-17T11:23:50.578Z,984.96
2022-11-17T11:24:50.569Z,985.00
2022-11-17T11:25:50.550Z,984.96
2022-11-17T11:26:50.583Z,985.01
2022-11-17T11:27:50.556Z,984.98
2022-11-17T11:28:54.691Z,985.01
2022-11-17T11:29:50.512Z,985.04
2022-11-17T11:30:51.331Z,985.05
2022-11-17T11:31:50.519Z,985.05
2022-11-17T11:32:50.449Z,985.11
2022-11-17T11:33:50.496Z,985.10
2022-11-17T11:34:50.472Z,985.12
2022-11-17T11:35:50.485Z,985.13
2022-11-17T11:36:50.680Z,985.11
2022-11-17T11:37:50.408Z,985.21
2022-11-17T11:38:50.429Z,985.21
2022-11-17T11:39:50.404Z,985.19
2022-11-17T11:40:50.393Z,985.16
2022-11-17T11:41:50.369Z,985.18
2022-11-17T11:42:50.381Z,985.17
2022-11-17T11:43:50.422Z,985.22
2022-11-17T11:44:51.305Z,985.15
2022-11-17T11:45:50.306Z,985.20
2022-11-17T11:46:50.329Z,985.25
2022-11-17T11:47:50.347Z,985.20
2022-11-17T11:48:50.311Z,985.13
2022-11-17T11:49:50.309Z,985.11
2022-11-17T11:50:54.195Z,985.07
2022-11-17T11:51:51.569Z,985.17
2022-11-17T11:52:50.694Z,985.20
2022-11-17T11:53:50.256Z,985.14
2022-11-17T11:54:51.243Z,985.13
2022-11-17T11:55:50.772Z,985.12
2022-11-17T11:56:50.257Z,985.12
2022-11-17T11:57:51.368Z,985.17
2022-11-17T11:58:50.195Z,985.14
2022-11-17T11:59:50.202Z,985.13
2022-11-17T12:00:50.203Z,985.20
2022-11-17T12:01:50.221Z,985.15
2022-11-17T12:02:50.218Z,985.19
2022-11-17T12:03:50.103Z,985.18
2022-11-17T12:04:50.110Z,985.16
2022-11-17T12:05:50.245Z,985.23
2022-11-17T12:06:52.895Z,985.20
2022-11-17T12:07:50.060Z,985.23
2022-11-17T12:08:50.486Z,985.26
2022-11-17T12:09:50.504Z,985.20
2022-11-17T12:10:50.283Z,985.14
2022-11-17T12:11:51.172Z,985.23
2022-11-17T12:12:50.011Z,985.18
2022-11-17T12:13:54.119Z,985.17
2022-11-17T12:14:50.002Z,985.15
2022-11-17T12:15:50.212Z,985.13
2022-11-17T12:16:49.963Z,985.17
2022-11-17T12:17:50.873Z,985.11
2022-11-17T12:18:50.796Z,985.16
2022-11-17T12:19:50.779Z,985.16
2022-11-17T12:20:49.982Z,985.20
2022-11-17T12:21:50.765Z,985.19
2022-11-17T12:22:49.911Z,985.22
2022-11-17T12:23:50.753Z,985.24
2022-11-17T12:24:52.788Z,985.15
2022-11-17T12:25:53.729Z,985.21
2022-11-17T12:26:49.880Z,985.18
2022-11-17T12:27:49.849Z,985.11
2022-11-17T12:28:49.832Z,985.17